Revillo, South Dakota
Current Conditions -  °F | °C
As of 2:34 AM on Friday 21 Nov 2014 (Local Time) from KDXX Reporting Station
Clear Clear  
Wind Chill: -5°   Ceiling: Unl
Heat Index: 10°   Visibility: 10mi
Dew Point:   Wind: 14mph
Humidity: 85%   Direction: 150°SSE
Pressure: 30.13"   Gusts: NA
Location:  45.02°N, 96.57°W
Report Text: KDXX 210834Z AUTO 15012KT 10SM CLR M12/M14 A3013 RMK AO2
Loading
Personal Weather Stations






























Interactive Weather Map New forecast layout! Learn more

10-Day Weather Forecast

Advertisements
Track Severe Weather on mobile